Terminal Aerodrome Forecast
Issued by NWS Corpus Christi, TX

Home | Current Version | Previous Version | Text Only | Print | Product List | Glossary On
Versions: 1 2 3 4 5 6 7 8 9 10 11 12 13 14 15 16
000
FTUS44 KCRP 291125
TAFCRP
TAF
KCRP 291125Z 2912/3012 01010KT P6SM VCSH OVC006
     FM291500 02010KT P6SM VCSH BKN015 OVC040
     FM291700 05012KT P6SM VCTS BKN030CB OVC100
      TEMPO 2917/2920 3SM TSRA OVC025CB
     FM292100 08012G18KT P6SM SCT035 BKN150
     FM300300 07009KT P6SM SCT025 BKN250
      TEMPO 3004/3008 BKN025 OVC250
     FM300800 07005KT P6SM BKN015=

USA.gov is the U.S. government's official web portal to all federal, state and local government web resources and services.